Time;durP1;ratioP1;P1;durP2;ratioP2;P2;SDS_P1;SDS_P2;PMS_P1;PMS_P2;Temp;Humidity;BMP_temperature;BMP_pressure;BME280_temperature;BME280_humidity;BME280_pressure;Samples;Min_cycle;Max_cycle;Signal;HPM_P1;HPM_P2
2023/02/06 00:00:10;;;;;;;5.70;4.40;;;;;;;;;;5008259;28;20556;-48
2023/02/06 00:02:36;;;;;;;5.70;4.20;;;;;;;;;;5014165;28;20212;-48
2023/02/06 00:05:02;;;;;;;4.65;4.22;;;;;;;;;;5017084;28;20289;-48
2023/02/06 00:07:29;;;;;;;5.35;4.50;;;;;;;;;;5014736;28;20200;-48
2023/02/06 00:09:55;;;;;;;5.18;4.57;;;;;;;;;;5005607;28;20208;-48
2023/02/06 00:12:21;;;;;;;6.18;4.60;;;;;;;;;;5013389;28;20239;-48
2023/02/06 00:14:47;;;;;;;5.50;4.60;;;;;;;;;;5013014;28;20184;-48
2023/02/06 00:17:13;;;;;;;4.45;3.85;;;;;;;;;;5014884;28;20234;-48
2023/02/06 00:19:39;;;;;;;5.75;4.53;;;;;;;;;;5009281;28;20189;-48
2023/02/06 00:22:04;;;;;;;5.63;4.15;;;;;;;;;;5014793;28;20219;-48
2023/02/06 00:24:30;;;;;;;5.07;4.30;;;;;;;;;;5014512;28;20212;-48
2023/02/06 00:26:56;;;;;;;6.13;4.55;;;;;;;;;;5014614;28;20303;-48
2023/02/06 00:29:22;;;;;;;4.72;4.18;;;;;;;;;;5011231;28;20434;-48
2023/02/06 00:31:48;;;;;;;4.95;3.95;;;;;;;;;;5011129;28;20242;-49
2023/02/06 00:34:14;;;;;;;5.35;4.35;;;;;;;;;;5007670;28;20180;-48
2023/02/06 00:36:40;;;;;;;5.07;3.88;;;;;;;;;;5006871;28;20556;-48
2023/02/06 00:39:06;;;;;;;5.70;4.63;;;;;;;;;;5022686;28;20183;-48
2023/02/06 00:41:32;;;;;;;4.32;3.40;;;;;;;;;;5010526;28;20209;-48
2023/02/06 00:43:58;;;;;;;5.43;4.07;;;;;;;;;;5014451;28;20202;-48
2023/02/06 00:46:24;;;;;;;7.15;4.30;;;;;;;;;;5012748;28;20196;-48
2023/02/06 00:48:49;;;;;;;4.57;4.15;;;;;;;;;;5012206;28;20192;-48
2023/02/06 00:51:15;;;;;;;4.80;3.80;;;;;;;;;;5009654;28;20552;-48
2023/02/06 00:53:41;;;;;;;4.18;3.70;;;;;;;;;;5014683;28;20525;-48
2023/02/06 00:56:07;;;;;;;4.05;3.50;;;;;;;;;;5017575;28;20202;-48
2023/02/06 00:58:33;;;;;;;4.22;3.53;;;;;;;;;;5016878;28;20188;-48
2023/02/06 01:00:59;;;;;;;4.47;4.05;;;;;;;;;;5014295;28;20188;-48
2023/02/06 01:03:25;;;;;;;4.82;3.92;;;;;;;;;;5013745;28;20209;-48
2023/02/06 01:05:51;;;;;;;4.35;3.95;;;;;;;;;;5013392;28;20235;-48
2023/02/06 01:08:17;;;;;;;5.68;4.07;;;;;;;;;;5012334;28;20216;-48
2023/02/06 01:10:43;;;;;;;4.38;3.58;;;;;;;;;;5014176;28;20192;-48
2023/02/06 01:13:09;;;;;;;4.53;3.53;;;;;;;;;;5016585;28;20181;-48
2023/02/06 01:15:36;;;;;;;4.00;3.60;;;;;;;;;;5010988;28;20339;-48
2023/02/06 01:18:02;;;;;;;5.18;3.92;;;;;;;;;;5015416;28;20184;-48
2023/02/06 01:20:28;;;;;;;5.53;3.95;;;;;;;;;;5004896;28;20463;-48
2023/02/06 01:22:54;;;;;;;4.20;3.80;;;;;;;;;;5016189;28;20215;-48
2023/02/06 01:25:20;;;;;;;5.63;3.60;;;;;;;;;;5012074;28;20192;-48
2023/02/06 01:27:46;;;;;;;4.30;3.55;;;;;;;;;;5017112;28;20194;-48
2023/02/06 01:30:12;;;;;;;4.45;3.75;;;;;;;;;;5006435;28;20587;-48
2023/02/06 01:32:39;;;;;;;4.07;3.53;;;;;;;;;;5014318;28;20582;-48
2023/02/06 01:35:06;;;;;;;4.68;4.18;;;;;;;;;;5019046;28;20247;-48
2023/02/06 01:37:32;;;;;;;3.78;3.33;;;;;;;;;;5005953;28;20185;-48
2023/02/06 01:39:58;;;;;;;4.78;3.78;;;;;;;;;;5010315;28;20196;-48
2023/02/06 01:42:24;;;;;;;4.27;3.37;;;;;;;;;;5016299;28;20227;-48
2023/02/06 01:45:10;;;;;;;3.80;3.40;;;;;;;;;;5013071;28;20207;-48
2023/02/06 01:47:36;;;;;;;4.00;3.40;;;;;;;;;;5014283;28;20195;-48
2023/02/06 01:50:02;;;;;;;3.85;3.45;;;;;;;;;;5009868;28;20181;-48
2023/02/06 01:52:29;;;;;;;3.83;3.42;;;;;;;;;;5012544;28;20204;-48
2023/02/06 01:54:57;;;;;;;4.35;3.40;;;;;;;;;;5011268;28;20507;-48
2023/02/06 01:57:24;;;;;;;5.32;3.60;;;;;;;;;;5012496;28;20555;-48
2023/02/06 01:59:51;;;;;;;3.83;3.35;;;;;;;;;;5011409;28;20189;-48
2023/02/06 02:02:17;;;;;;;3.08;2.80;;;;;;;;;;5006068;28;20219;-48
2023/02/06 02:04:44;;;;;;;3.47;2.95;;;;;;;;;;5020790;28;20188;-48
2023/02/06 02:07:13;;;;;;;4.28;3.22;;;;;;;;;;5011967;28;20234;-48
2023/02/06 02:09:40;;;;;;;3.90;3.20;;;;;;;;;;5006042;28;20185;-48
2023/02/06 02:12:06;;;;;;;4.05;3.20;;;;;;;;;;5016273;28;20188;-48
2023/02/06 02:14:32;;;;;;;3.97;3.35;;;;;;;;;;5010763;28;20461;-48
2023/02/06 02:17:04;;;;;;;4.13;3.25;;;;;;;;;;5016449;28;20185;-49
2023/02/06 02:19:33;;;;;;;3.60;3.30;;;;;;;;;;5012676;28;20556;-49
2023/02/06 02:22:10;;;;;;;3.90;3.25;;;;;;;;;;5016546;28;20200;-48
2023/02/06 02:24:54;;;;;;;3.45;3.15;;;;;;;;;;5014437;28;20271;-48
2023/02/06 02:27:39;;;;;;;3.47;3.03;;;;;;;;;;5015899;28;20582;-48
2023/02/06 02:30:16;;;;;;;3.42;3.13;;;;;;;;;;5002087;28;20216;-48
2023/02/06 02:33:00;;;;;;;3.80;3.00;;;;;;;;;;5016553;28;20602;-48
2023/02/06 02:35:41;;;;;;;4.43;3.45;;;;;;;;;;5025334;28;20211;-48
2023/02/06 02:38:20;;;;;;;3.85;3.08;;;;;;;;;;5023728;28;20227;-48
2023/02/06 02:40:53;;;;;;;4.00;3.08;;;;;;;;;;5003671;28;20212;-48
2023/02/06 02:43:33;;;;;;;4.20;3.42;;;;;;;;;;5014079;28;20209;-48
2023/02/06 02:46:02;;;;;;;3.42;3.10;;;;;;;;;;5015371;28;20185;-48
2023/02/06 02:48:37;;;;;;;3.17;2.83;;;;;;;;;;5013713;28;20265;-48
2023/02/06 02:51:03;;;;;;;4.78;3.05;;;;;;;;;;5008940;28;20211;-48
2023/02/06 02:53:30;;;;;;;3.60;3.10;;;;;;;;;;5011016;28;20192;-48
2023/02/06 02:55:58;;;;;;;3.55;2.97;;;;;;;;;;5012298;28;20238;-48
2023/02/06 02:58:26;;;;;;;4.28;3.28;;;;;;;;;;5012444;28;20193;-48
2023/02/06 03:00:54;;;;;;;3.08;2.60;;;;;;;;;;5006936;28;20185;-48
2023/02/06 03:03:22;;;;;;;3.35;2.95;;;;;;;;;;5005396;28;20521;-48
2023/02/06 03:06:11;;;;;;;4.53;3.58;;;;;;;;;;5012585;28;20216;-48
2023/02/06 03:08:42;;;;;;;3.63;3.10;;;;;;;;;;5012457;28;20213;-48
2023/02/06 03:11:15;;;;;;;3.25;2.72;;;;;;;;;;5010062;28;20271;-48
2023/02/06 03:13:48;;;;;;;2.97;2.72;;;;;;;;;;5010448;28;20268;-48
2023/02/06 03:16:25;;;;;;;4.00;3.30;;;;;;;;;;5013785;28;20200;-48
2023/02/06 03:18:58;;;;;;;3.05;2.78;;;;;;;;;;5012591;28;20184;-48
2023/02/06 03:21:24;;;;;;;3.15;2.78;;;;;;;;;;5004956;28;20227;-48
2023/02/06 03:23:52;;;;;;;3.53;2.80;;;;;;;;;;5014877;28;20268;-48
2023/02/06 03:26:20;;;;;;;3.78;3.03;;;;;;;;;;5013696;28;20192;-48
2023/02/06 03:28:48;;;;;;;3.35;2.83;;;;;;;;;;5014366;28;20615;-48
2023/02/06 03:31:19;;;;;;;3.72;3.08;;;;;;;;;;5007797;28;20268;-48
2023/02/06 03:33:48;;;;;;;3.00;2.60;;;;;;;;;;5012233;28;20192;-48
2023/02/06 03:36:16;;;;;;;3.70;3.30;;;;;;;;;;5019213;28;20233;-48
2023/02/06 03:38:43;;;;;;;3.53;2.83;;;;;;;;;;5010081;28;20181;-48
2023/02/06 03:41:09;;;;;;;2.55;2.35;;;;;;;;;;5007695;28;20488;-48
2023/02/06 03:43:35;;;;;;;4.43;3.05;;;;;;;;;;5011807;28;20207;-48
2023/02/06 03:46:02;;;;;;;4.03;3.08;;;;;;;;;;5009988;28;20192;-48
2023/02/06 03:48:31;;;;;;;3.17;2.88;;;;;;;;;;5009346;28;20181;-48
2023/02/06 03:50:58;;;;;;;3.60;3.13;;;;;;;;;;5009033;28;20211;-48
2023/02/06 03:53:25;;;;;;;2.95;2.65;;;;;;;;;;5013808;28;20184;-48
2023/02/06 03:55:54;;;;;;;3.17;2.78;;;;;;;;;;5023340;28;20192;-48
2023/02/06 03:58:20;;;;;;;2.67;2.47;;;;;;;;;;5014449;28;20195;-48
2023/02/06 04:00:46;;;;;;;3.10;2.85;;;;;;;;;;5006961;28;20195;-48
2023/02/06 04:03:13;;;;;;;3.00;2.70;;;;;;;;;;5009943;28;20201;-48
2023/02/06 04:05:39;;;;;;;3.45;3.00;;;;;;;;;;5020604;28;20731;-48
2023/02/06 04:08:05;;;;;;;3.38;2.70;;;;;;;;;;5011724;28;20184;-48
2023/02/06 04:10:31;;;;;;;3.35;2.60;;;;;;;;;;5009056;28;20176;-48
2023/02/06 04:12:57;;;;;;;3.88;2.97;;;;;;;;;;5014746;28;20246;-48
2023/02/06 04:15:23;;;;;;;3.03;2.72;;;;;;;;;;5014945;28;20192;-48
2023/02/06 04:17:51;;;;;;;3.42;2.83;;;;;;;;;;5007384;28;20547;-48
2023/02/06 04:20:17;;;;;;;3.25;2.40;;;;;;;;;;5009865;28;20290;-49
2023/02/06 04:22:43;;;;;;;3.72;2.80;;;;;;;;;;5013353;28;20291;-48
2023/02/06 04:25:09;;;;;;;3.03;2.72;;;;;;;;;;5012871;28;20207;-48
2023/02/06 04:27:35;;;;;;;3.58;2.47;;;;;;;;;;5018921;28;20676;-48
2023/02/06 04:30:01;;;;;;;4.03;2.55;;;;;;;;;;5017051;28;20180;-48
2023/02/06 04:32:27;;;;;;;3.10;2.60;;;;;;;;;;4999402;28;20187;-48
2023/02/06 04:34:53;;;;;;;3.28;2.63;;;;;;;;;;5023459;28;20184;-48
2023/02/06 04:37:18;;;;;;;4.05;2.90;;;;;;;;;;5011548;28;20192;-48
2023/02/06 04:39:44;;;;;;;3.47;3.00;;;;;;;;;;5017759;28;20195;-48
2023/02/06 04:42:10;;;;;;;3.35;2.67;;;;;;;;;;5012199;28;20212;-48
2023/02/06 04:44:37;;;;;;;3.10;2.80;;;;;;;;;;5016395;28;20235;-48
2023/02/06 04:47:03;;;;;;;4.45;2.88;;;;;;;;;;5015098;28;20197;-48
2023/02/06 04:49:29;;;;;;;5.88;2.70;;;;;;;;;;5012981;28;20193;-48
2023/02/06 04:51:55;;;;;;;3.72;2.40;;;;;;;;;;5015717;28;20211;-48
2023/02/06 04:54:21;;;;;;;4.03;2.97;;;;;;;;;;5004927;28;20198;-48
2023/02/06 04:56:47;;;;;;;4.70;2.80;;;;;;;;;;5016330;28;20208;-48
2023/02/06 04:59:13;;;;;;;2.85;2.45;;;;;;;;;;5015359;28;20199;-48
2023/02/06 05:01:39;;;;;;;3.80;2.80;;;;;;;;;;5014567;28;20234;-48
2023/02/06 05:04:05;;;;;;;5.40;2.92;;;;;;;;;;5019626;28;20665;-48
2023/02/06 05:06:31;;;;;;;4.72;3.05;;;;;;;;;;5028343;28;20195;-48
2023/02/06 05:09:01;;;;;;;4.95;2.75;;;;;;;;;;5018431;28;20184;-48
2023/02/06 05:11:27;;;;;;;6.03;3.23;;;;;;;;;;5013552;28;20194;-48
2023/02/06 05:13:53;;;;;;;3.92;2.65;;;;;;;;;;5016922;28;20272;-48
2023/02/06 05:16:19;;;;;;;4.40;2.97;;;;;;;;;;5010943;28;20271;-48
2023/02/06 05:18:46;;;;;;;4.18;2.95;;;;;;;;;;5011766;28;20184;-48
2023/02/06 05:21:12;;;;;;;4.50;2.90;;;;;;;;;;5014791;28;20461;-48
2023/02/06 05:23:38;;;;;;;5.15;3.10;;;;;;;;;;5017490;28;20240;-48
2023/02/06 05:26:04;;;;;;;5.68;3.30;;;;;;;;;;5013351;28;20231;-48
2023/02/06 05:28:32;;;;;;;6.27;3.20;;;;;;;;;;5009856;28;20184;-48
2023/02/06 05:30:58;;;;;;;6.87;3.13;;;;;;;;;;5010289;28;20216;-48
2023/02/06 05:33:24;;;;;;;5.73;3.30;;;;;;;;;;5016302;28;20192;-48
2023/02/06 05:35:50;;;;;;;4.83;2.87;;;;;;;;;;5019753;28;20211;-48
2023/02/06 05:38:16;;;;;;;6.17;3.40;;;;;;;;;;5007237;28;20189;-48
2023/02/06 05:40:42;;;;;;;3.30;2.80;;;;;;;;;;5013082;28;20517;-48
2023/02/06 05:43:08;;;;;;;6.80;3.20;;;;;;;;;;5015516;28;20216;-48
2023/02/06 05:45:33;;;;;;;4.50;3.30;;;;;;;;;;5014657;28;20307;-48
2023/02/06 05:47:59;;;;;;;6.97;3.53;;;;;;;;;;5016417;28;20192;-48
2023/02/06 05:50:25;;;;;;;6.80;3.50;;;;;;;;;;5009409;28;20192;-48
2023/02/06 05:52:51;;;;;;;5.53;3.42;;;;;;;;;;5012146;28;20184;-48
2023/02/06 05:55:17;;;;;;;6.07;3.38;;;;;;;;;;5014072;28;20563;-48
2023/02/06 05:57:44;;;;;;;6.55;4.18;;;;;;;;;;5015818;28;20231;-48
2023/02/06 06:00:10;;;;;;;4.03;3.33;;;;;;;;;;5015322;28;20427;-48
2023/02/06 06:02:36;;;;;;;3.20;2.90;;;;;;;;;;5016151;28;20588;-48
2023/02/06 06:05:02;;;;;;;6.57;3.40;;;;;;;;;;5004023;28;20275;-48
2023/02/06 06:07:28;;;;;;;9.50;3.70;;;;;;;;;;5012327;28;20457;-48
2023/02/06 06:09:54;;;;;;;4.90;3.37;;;;;;;;;;5007484;28;20181;-48
2023/02/06 06:12:20;;;;;;;5.95;3.88;;;;;;;;;;5014782;28;20278;-48
2023/02/06 06:14:46;;;;;;;5.70;3.73;;;;;;;;;;5012815;28;20185;-47
2023/02/06 06:17:12;;;;;;;5.32;3.67;;;;;;;;;;5012923;28;20211;-48
2023/02/06 06:19:37;;;;;;;5.37;3.73;;;;;;;;;;5012404;28;20653;-48
2023/02/06 06:22:03;;;;;;;5.93;3.97;;;;;;;;;;5014127;28;20219;-48
2023/02/06 06:24:29;;;;;;;5.57;3.57;;;;;;;;;;5016882;28;20548;-48
2023/02/06 06:26:55;;;;;;;5.18;3.90;;;;;;;;;;5014472;28;20275;-48
2023/02/06 06:29:21;;;;;;;5.63;3.70;;;;;;;;;;4997280;28;20264;-48
2023/02/06 06:31:47;;;;;;;5.23;4.00;;;;;;;;;;4997276;28;20192;-48
2023/02/06 06:34:13;;;;;;;5.33;3.70;;;;;;;;;;5013555;28;20188;-48
2023/02/06 06:36:39;;;;;;;5.27;3.43;;;;;;;;;;5025286;28;20195;-48
2023/02/06 06:39:05;;;;;;;4.23;3.37;;;;;;;;;;5014097;28;20464;-48
2023/02/06 06:41:31;;;;;;;6.10;3.33;;;;;;;;;;5014607;28;20263;-48
2023/02/06 06:43:57;;;;;;;4.10;3.50;;;;;;;;;;5015817;28;20211;-48
2023/02/06 06:46:23;;;;;;;5.03;3.83;;;;;;;;;;5015711;28;20181;-48
2023/02/06 06:48:49;;;;;;;3.93;3.53;;;;;;;;;;5014754;28;20267;-48
2023/02/06 06:51:15;;;;;;;4.67;3.60;;;;;;;;;;5013853;28;20385;-48
2023/02/06 06:53:41;;;;;;;5.63;3.70;;;;;;;;;;5010452;28;20220;-48
2023/02/06 06:56:09;;;;;;;5.27;3.77;;;;;;;;;;5009914;28;20219;-48
2023/02/06 06:58:35;;;;;;;5.47;3.80;;;;;;;;;;5014841;28;20211;-48
2023/02/06 07:01:01;;;;;;;5.13;3.70;;;;;;;;;;5015495;28;20560;-48
2023/02/06 07:03:27;;;;;;;5.90;3.80;;;;;;;;;;5013602;28;20208;-48
2023/02/06 07:05:53;;;;;;;4.77;3.67;;;;;;;;;;5014047;28;20215;-48
2023/02/06 07:08:19;;;;;;;5.50;3.70;;;;;;;;;;5012484;28;20271;-48
2023/02/06 07:10:46;;;;;;;5.90;3.90;;;;;;;;;;5014639;28;20200;-48
2023/02/06 07:13:14;;;;;;;4.50;3.60;;;;;;;;;;5016077;28;20180;-48
2023/02/06 07:15:40;;;;;;;5.30;3.90;;;;;;;;;;5005843;28;20280;-48
2023/02/06 07:18:06;;;;;;;4.97;3.70;;;;;;;;;;5012814;28;20566;-48
2023/02/06 07:20:32;;;;;;;3.87;3.43;;;;;;;;;;5013846;28;20582;-48
2023/02/06 07:23:00;;;;;;;4.70;3.67;;;;;;;;;;5015706;28;20228;-48
2023/02/06 07:25:26;;;;;;;4.47;3.63;;;;;;;;;;5013490;28;20452;-48
2023/02/06 07:27:52;;;;;;;4.13;3.63;;;;;;;;;;5014278;28;20196;-48
2023/02/06 07:30:18;;;;;;;5.13;4.00;;;;;;;;;;5012047;28;20184;-48
2023/02/06 07:32:44;;;;;;;5.40;4.13;;;;;;;;;;5014457;28;20216;-48
2023/02/06 07:35:10;;;;;;;3.95;3.60;;;;;;;;;;5020481;28;20188;-48
2023/02/06 07:37:36;;;;;;;5.17;3.60;;;;;;;;;;5008407;28;20189;-48
2023/02/06 07:40:02;;;;;;;4.47;3.53;;;;;;;;;;5013814;28;20225;-48
2023/02/06 07:42:28;;;;;;;4.47;3.57;;;;;;;;;;5004788;28;20200;-48
2023/02/06 07:44:54;;;;;;;4.23;3.60;;;;;;;;;;5006508;28;20181;-48
2023/02/06 07:47:20;;;;;;;5.40;3.95;;;;;;;;;;5013825;28;20180;-47
2023/02/06 07:49:45;;;;;;;5.80;3.80;;;;;;;;;;5011902;28;20187;-47
2023/02/06 07:52:12;;;;;;;6.05;3.92;;;;;;;;;;5015410;28;20277;-47
2023/02/06 07:54:37;;;;;;;4.77;3.33;;;;;;;;;;5008441;28;20199;-47
2023/02/06 07:57:03;;;;;;;4.70;3.80;;;;;;;;;;5011713;28;20185;-47
2023/02/06 07:59:29;;;;;;;5.18;4.22;;;;;;;;;;5009303;28;20239;-48
2023/02/06 08:01:55;;;;;;;4.83;4.13;;;;;;;;;;5008632;28;20287;-47
2023/02/06 08:04:21;;;;;;;4.30;3.70;;;;;;;;;;5011260;28;20211;-47
2023/02/06 08:06:47;;;;;;;4.90;3.57;;;;;;;;;;5006180;28;20191;-47
2023/02/06 08:09:17;;;;;;;5.05;3.92;;;;;;;;;;5004947;28;20212;-47
2023/02/06 08:11:43;;;;;;;4.03;3.38;;;;;;;;;;5014923;28;20192;-47
2023/02/06 08:14:09;;;;;;;4.90;3.90;;;;;;;;;;5015088;28;20188;-48
2023/02/06 08:16:35;;;;;;;4.07;3.10;;;;;;;;;;5009726;28;20193;-48
2023/02/06 08:19:01;;;;;;;4.17;3.37;;;;;;;;;;5014332;28;20255;-48
2023/02/06 08:21:27;;;;;;;4.50;3.90;;;;;;;;;;5006224;28;20251;-48
2023/02/06 08:23:53;;;;;;;4.63;3.80;;;;;;;;;;5015271;28;20184;-48
2023/02/06 08:26:20;;;;;;;4.50;3.70;;;;;;;;;;5014322;28;20185;-48
2023/02/06 08:28:47;;;;;;;4.63;3.53;;;;;;;;;;5013093;28;20441;-48
2023/02/06 08:31:16;;;;;;;4.57;3.77;;;;;;;;;;5010791;28;20192;-48
2023/02/06 08:33:42;;;;;;;3.90;3.53;;;;;;;;;;5006250;28;20570;-48
2023/02/06 08:36:08;;;;;;;4.17;3.47;;;;;;;;;;5009267;28;20297;-48
2023/02/06 08:38:35;;;;;;;5.57;3.23;;;;;;;;;;5009652;28;20180;-48
2023/02/06 08:41:01;;;;;;;4.40;3.43;;;;;;;;;;4999360;28;20189;-48
2023/02/06 08:43:26;;;;;;;4.20;3.57;;;;;;;;;;5012113;28;20478;-48
2023/02/06 08:45:56;;;;;;;4.53;3.77;;;;;;;;;;5012763;28;20237;-48
2023/02/06 08:48:22;;;;;;;5.03;3.73;;;;;;;;;;5008400;28;20192;-48
2023/02/06 08:50:47;;;;;;;3.87;3.47;;;;;;;;;;5012576;28;20510;-48
2023/02/06 08:53:13;;;;;;;4.03;3.60;;;;;;;;;;5003614;28;20463;-48
2023/02/06 08:55:39;;;;;;;4.30;3.63;;;;;;;;;;5004465;28;20199;-47
2023/02/06 08:58:05;;;;;;;4.73;3.40;;;;;;;;;;5006651;28;20181;-48
2023/02/06 09:00:31;;;;;;;4.23;3.83;;;;;;;;;;5012192;28;20219;-48
2023/02/06 09:02:57;;;;;;;3.93;3.33;;;;;;;;;;5011114;28;20243;-47
2023/02/06 09:05:23;;;;;;;4.10;3.55;;;;;;;;;;4999978;28;20559;-48
2023/02/06 09:07:49;;;;;;;4.50;3.33;;;;;;;;;;5004488;28;20189;-48
2023/02/06 09:10:15;;;;;;;3.50;3.05;;;;;;;;;;5006206;28;20196;-48
2023/02/06 09:12:41;;;;;;;5.43;3.60;;;;;;;;;;5014689;28;20188;-47
2023/02/06 09:15:07;;;;;;;3.83;3.30;;;;;;;;;;5014456;28;20787;-47
2023/02/06 09:17:34;;;;;;;4.93;3.77;;;;;;;;;;5010380;28;20211;-47
2023/02/06 09:20:01;;;;;;;4.57;3.67;;;;;;;;;;5004596;28;20256;-47
2023/02/06 09:22:27;;;;;;;5.10;3.77;;;;;;;;;;5013222;28;20208;-47
2023/02/06 09:24:53;;;;;;;5.43;3.70;;;;;;;;;;5008538;28;20189;-47
2023/02/06 09:27:19;;;;;;;5.07;3.58;;;;;;;;;;5012093;28;20560;-47
2023/02/06 09:29:46;;;;;;;3.92;3.53;;;;;;;;;;5008988;28;20239;-48
2023/02/06 09:32:12;;;;;;;4.13;3.53;;;;;;;;;;5012892;28;20188;-47
2023/02/06 09:34:38;;;;;;;4.30;3.23;;;;;;;;;;5011450;28;20181;-47
2023/02/06 09:37:05;;;;;;;5.10;3.30;;;;;;;;;;5006351;28;20603;-48
2023/02/06 09:39:31;;;;;;;3.90;3.50;;;;;;;;;;5003035;28;20223;-48
2023/02/06 09:42:17;;;;;;;4.55;3.50;;;;;;;;;;5012403;28;20467;-48
2023/02/06 09:44:50;;;;;;;5.10;3.73;;;;;;;;;;4996668;28;20188;-48
2023/02/06 09:47:25;;;;;;;5.10;3.43;;;;;;;;;;5009718;28;20178;-47
2023/02/06 09:49:52;;;;;;;3.63;3.33;;;;;;;;;;5005254;28;20181;-48
2023/02/06 09:52:41;;;;;;;3.93;3.17;;;;;;;;;;5007640;28;20235;-48
2023/02/06 09:55:17;;;;;;;4.38;3.75;;;;;;;;;;4985350;28;20259;-48
2023/02/06 09:57:51;;;;;;;3.85;3.03;;;;;;;;;;5013362;28;20189;-48
2023/02/06 10:00:32;;;;;;;3.28;2.97;;;;;;;;;;5010836;28;20548;-47
2023/02/06 10:03:13;;;;;;;4.30;3.50;;;;;;;;;;5020806;28;20216;-47
2023/02/06 10:05:46;;;;;;;3.43;3.13;;;;;;;;;;5016770;28;20507;-47
2023/02/06 10:08:21;;;;;;;3.47;3.05;;;;;;;;;;5010345;28;20193;-47
2023/02/06 10:11:01;;;;;;;4.63;3.47;;;;;;;;;;5009266;28;20184;-47
2023/02/06 10:13:32;;;;;;;4.18;3.22;;;;;;;;;;5000442;28;20226;-47
2023/02/06 10:16:03;;;;;;;3.50;3.00;;;;;;;;;;5003764;28;20187;-48
2023/02/06 10:18:44;;;;;;;3.58;3.28;;;;;;;;;;5006335;28;20208;-48
2023/02/06 10:21:14;;;;;;;3.87;3.20;;;;;;;;;;5009070;28;20192;-47
2023/02/06 10:23:50;;;;;;;4.13;3.07;;;;;;;;;;5000901;28;20219;-47
2023/02/06 10:26:17;;;;;;;3.95;3.22;;;;;;;;;;5005102;28;20238;-47
2023/02/06 10:28:44;;;;;;;4.03;3.40;;;;;;;;;;5016576;28;20602;-47
2023/02/06 10:31:27;;;;;;;4.18;3.25;;;;;;;;;;5010447;28;20188;-47
2023/02/06 10:34:12;;;;;;;4.20;3.27;;;;;;;;;;5012605;28;20191;-47
2023/02/06 10:36:52;;;;;;;5.40;3.57;;;;;;;;;;5001419;28;20195;-47
2023/02/06 10:39:23;;;;;;;3.83;3.30;;;;;;;;;;5014575;28;20180;-47
2023/02/06 10:42:19;;;;;;;3.83;2.97;;;;;;;;;;5015564;28;20195;-49
2023/02/06 10:44:56;;;;;;;3.50;3.20;;;;;;;;;;4992739;28;20221;-47
2023/02/06 10:47:28;;;;;;;4.20;3.17;;;;;;;;;;5008781;28;20590;-47
2023/02/06 10:50:01;;;;;;;3.58;3.08;;;;;;;;;;5007816;28;20189;-47
2023/02/06 10:52:29;;;;;;;5.18;3.45;;;;;;;;;;5014687;28;20191;-48
2023/02/06 10:55:00;;;;;;;3.50;3.08;;;;;;;;;;5009207;28;20453;-48
2023/02/06 10:57:27;;;;;;;4.67;3.10;;;;;;;;;;5010344;28;20198;-47
2023/02/06 10:59:56;;;;;;;3.55;3.05;;;;;;;;;;5014962;28;20709;-47
2023/02/06 11:02:41;;;;;;;3.70;3.00;;;;;;;;;;5008267;28;20260;-47
2023/02/06 11:05:09;;;;;;;4.50;3.53;;;;;;;;;;5016101;28;20196;-48
2023/02/06 11:07:41;;;;;;;3.80;3.17;;;;;;;;;;5008790;28;20511;-48
2023/02/06 11:10:07;;;;;;;4.07;3.00;;;;;;;;;;5009518;28;20204;-48
2023/02/06 11:12:40;;;;;;;3.85;3.20;;;;;;;;;;5015437;28;20192;-48
2023/02/06 11:15:19;;;;;;;3.93;3.10;;;;;;;;;;5013129;28;20184;-48
2023/02/06 11:17:45;;;;;;;3.50;3.07;;;;;;;;;;5015164;28;20200;-47
2023/02/06 11:20:16;;;;;;;3.50;3.10;;;;;;;;;;5007709;28;20236;-47
2023/02/06 11:22:42;;;;;;;3.33;2.90;;;;;;;;;;5009932;28;20235;-47
2023/02/06 11:25:19;;;;;;;3.30;3.00;;;;;;;;;;5008559;28;20397;-47
2023/02/06 11:27:45;;;;;;;3.83;3.30;;;;;;;;;;5015111;28;20188;-48
2023/02/06 11:30:23;;;;;;;3.43;3.13;;;;;;;;;;5014407;28;20195;-47
2023/02/06 11:32:49;;;;;;;3.80;3.10;;;;;;;;;;5024949;28;20211;-48
2023/02/06 11:35:21;;;;;;;3.70;3.27;;;;;;;;;;5006059;28;20234;-48
2023/02/06 11:37:49;;;;;;;4.17;3.30;;;;;;;;;;5024577;28;20192;-47
2023/02/06 11:40:18;;;;;;;4.28;3.30;;;;;;;;;;5011212;28;20279;-47
2023/02/06 11:43:04;;;;;;;3.70;3.20;;;;;;;;;;5011043;28;20505;-47
2023/02/06 11:45:31;;;;;;;3.28;2.97;;;;;;;;;;5011584;28;20192;-48
2023/02/06 11:47:57;;;;;;;3.40;2.77;;;;;;;;;;5013213;28;20188;-47
2023/02/06 11:50:23;;;;;;;3.53;3.00;;;;;;;;;;5005937;28;20193;-47
2023/02/06 11:52:54;;;;;;;3.30;2.80;;;;;;;;;;5013060;28;20191;-47
2023/02/06 11:55:26;;;;;;;3.75;2.95;;;;;;;;;;5007744;28;20197;-47
2023/02/06 11:58:04;;;;;;;3.47;2.90;;;;;;;;;;5013246;28;20187;-48
2023/02/06 12:00:30;;;;;;;4.13;2.95;;;;;;;;;;5007308;28;20227;-48
2023/02/06 12:02:56;;;;;;;3.10;2.50;;;;;;;;;;5010949;28;20561;-48
2023/02/06 12:05:26;;;;;;;3.22;2.75;;;;;;;;;;5009574;28;20543;-48
2023/02/06 12:07:55;;;;;;;3.43;2.70;;;;;;;;;;5006863;28;20181;-48
2023/02/06 12:10:22;;;;;;;3.00;2.70;;;;;;;;;;5013288;28;20536;-48
2023/02/06 12:12:54;;;;;;;3.13;2.73;;;;;;;;;;5010618;28;20196;-48
2023/02/06 12:15:19;;;;;;;2.60;2.40;;;;;;;;;;5011183;28;20192;-48
2023/02/06 12:17:54;;;;;;;3.07;2.67;;;;;;;;;;5012672;28;20230;-48
2023/02/06 12:20:22;;;;;;;3.20;2.43;;;;;;;;;;5011902;28;20214;-48
2023/02/06 12:22:53;;;;;;;3.67;2.50;;;;;;;;;;5014662;28;20253;-48
2023/02/06 12:25:27;;;;;;;3.70;2.77;;;;;;;;;;5014135;28;20623;-48
2023/02/06 12:27:56;;;;;;;2.87;2.50;;;;;;;;;;5014844;28;20657;-47
2023/02/06 12:30:26;;;;;;;3.60;2.63;;;;;;;;;;5004803;28;20191;-47
2023/02/06 12:33:01;;;;;;;2.80;2.20;;;;;;;;;;5008361;28;20195;-47
2023/02/06 12:35:35;;;;;;;3.00;2.70;;;;;;;;;;5020540;28;20183;-48
2023/02/06 12:38:09;;;;;;;3.13;2.83;;;;;;;;;;5007316;28;20222;-47
2023/02/06 12:40:43;;;;;;;2.83;2.20;;;;;;;;;;5014031;28;20193;-48
2023/02/06 12:43:11;;;;;;;3.57;2.20;;;;;;;;;;5014767;28;20456;-48
2023/02/06 12:45:43;;;;;;;3.23;2.53;;;;;;;;;;5008023;28;20191;-47
2023/02/06 12:48:17;;;;;;;2.60;2.40;;;;;;;;;;5017044;28;20188;-47
2023/02/06 12:50:46;;;;;;;2.60;2.40;;;;;;;;;;5006203;28;20185;-47
2023/02/06 12:53:16;;;;;;;2.73;2.40;;;;;;;;;;5004590;28;20189;-47
2023/02/06 12:56:01;;;;;;;2.67;2.47;;;;;;;;;;5004769;28;20235;-47
2023/02/06 12:58:39;;;;;;;2.73;2.53;;;;;;;;;;5016708;28;20200;-47
2023/02/06 13:01:26;;;;;;;2.63;2.20;;;;;;;;;;5017145;28;20192;-47
2023/02/06 13:03:56;;;;;;;3.27;2.43;;;;;;;;;;5013871;28;20216;-48
2023/02/06 13:06:33;;;;;;;2.50;2.27;;;;;;;;;;5013973;28;20224;-48
2023/02/06 13:09:00;;;;;;;2.60;2.40;;;;;;;;;;5006141;28;20208;-48
2023/02/06 13:11:37;;;;;;;2.93;2.57;;;;;;;;;;5013602;28;20216;-49
2023/02/06 13:14:06;;;;;;;2.50;2.30;;;;;;;;;;5008262;28;20222;-47
2023/02/06 13:16:41;;;;;;;2.33;2.13;;;;;;;;;;5016001;28;20271;-47
2023/02/06 13:19:19;;;;;;;2.43;2.23;;;;;;;;;;5007487;28;20243;-47
2023/02/06 13:21:50;;;;;;;2.87;2.20;;;;;;;;;;5008630;28;20272;-47
2023/02/06 13:24:17;;;;;;;2.57;2.37;;;;;;;;;;5006173;28;20196;-47
2023/02/06 13:26:42;;;;;;;2.63;2.25;;;;;;;;;;5015020;28;20241;-47
2023/02/06 13:29:44;;;;;;;2.40;2.20;;;;;;;;;;5011087;28;20260;-47
2023/02/06 13:32:10;;;;;;;2.73;2.03;;;;;;;;;;4950098;28;20199;-47
2023/02/06 13:34:43;;;;;;;2.50;2.30;;;;;;;;;;4996458;28;20201;-47
2023/02/06 13:37:28;;;;;;;2.23;2.00;;;;;;;;;;5005964;28;20185;-47
2023/02/06 13:40:13;;;;;;;2.17;1.80;;;;;;;;;;5006673;28;20191;-47
2023/02/06 13:42:41;;;;;;;2.27;1.97;;;;;;;;;;5003066;28;20228;-47
2023/02/06 13:45:14;;;;;;;2.00;1.80;;;;;;;;;;5006336;28;20489;-47
2023/02/06 13:48:01;;;;;;;2.20;2.00;;;;;;;;;;5003677;28;20194;-48
2023/02/06 13:50:35;;;;;;;2.20;2.00;;;;;;;;;;5013185;28;20490;-48
2023/02/06 13:53:06;;;;;;;2.40;2.20;;;;;;;;;;5005091;28;20221;-47
2023/02/06 13:55:50;;;;;;;2.53;2.10;;;;;;;;;;5003228;28;20189;-48
2023/02/06 13:58:37;;;;;;;2.42;1.90;;;;;;;;;;5006067;28;20521;-47
2023/02/06 14:01:09;;;;;;;2.00;1.80;;;;;;;;;;5000272;28;20185;-47
2023/02/06 14:03:37;;;;;;;3.17;2.10;;;;;;;;;;5007577;28;20216;-48
2023/02/06 14:06:05;;;;;;;1.87;1.67;;;;;;;;;;5003993;28;20219;-47
2023/02/06 14:08:50;;;;;;;2.10;1.73;;;;;;;;;;5011215;28;20207;-48
2023/02/06 14:11:30;;;;;;;1.77;1.67;;;;;;;;;;5025801;28;20227;-47
2023/02/06 14:14:16;;;;;;;2.10;1.90;;;;;;;;;;4998635;28;20236;-48
2023/02/06 14:17:04;;;;;;;1.77;1.67;;;;;;;;;;5007577;28;20188;-48
2023/02/06 14:19:38;;;;;;;2.00;1.80;;;;;;;;;;5002409;28;20255;-48
2023/02/06 14:22:20;;;;;;;1.90;1.80;;;;;;;;;;5010786;28;20207;-48
2023/02/06 14:24:46;;;;;;;2.17;1.97;;;;;;;;;;5007095;28;20222;-47
2023/02/06 14:27:19;;;;;;;2.05;1.85;;;;;;;;;;5009126;28;20225;-47
2023/02/06 14:30:00;;;;;;;1.73;1.57;;;;;;;;;;5004948;28;20272;-47
2023/02/06 14:32:43;;;;;;;1.80;1.70;;;;;;;;;;5005107;28;20193;-47
2023/02/06 14:35:19;;;;;;;2.10;1.70;;;;;;;;;;5010255;28;20450;-48
2023/02/06 14:37:53;;;;;;;1.77;1.50;;;;;;;;;;5006917;28;20180;-47
2023/02/06 14:40:21;;;;;;;2.13;1.93;;;;;;;;;;5008305;28;20565;-47
2023/02/06 14:42:48;;;;;;;1.70;1.60;;;;;;;;;;5003104;28;20270;-48
2023/02/06 14:45:20;;;;;;;1.70;1.50;;;;;;;;;;5003372;28;20216;-48
2023/02/06 14:47:46;;;;;;;2.10;1.52;;;;;;;;;;5000017;28;20236;-47
2023/02/06 14:50:19;;;;;;;1.90;1.70;;;;;;;;;;4998746;28;20192;-48
2023/02/06 14:52:47;;;;;;;1.90;1.60;;;;;;;;;;5003711;28;20261;-47
2023/02/06 14:55:29;;;;;;;1.70;1.50;;;;;;;;;;5010548;28;20239;-47